Strona główna
METAR-TAF:

METAR-TAF

Lotnisko :

Port lotniczy Hihifo

Wallis, Francja

Szerokość geograficzna: 13-14S, Długość geograficzna: 176-10W, wysokość: 23 m

METAR: brakujący

czas: 12:29 (00:29 UTC)

Prognoza

Raport powstał 1 godzina i 29 minut temu, godzina 23:00 UTC
Prognoza ważna od 20 godzina 00 UTC do 20 godzina 24 UTC
Wiatr 10 kt od południowy wschód
Widzialność 10 km lub więcej
Rozproszone chmury na wysokości 2000 ft
Przejściowo
od 20 godzina 00 UTC do 20 godzina 24 UTC
Widzialność: 4000 m
Przerywane chmury na wysokości 1400 ft
Mało chmury na wysokości 1800 ft, Cumulonimbus.
przelotny opad deszczu

TAF: NLWW 192300Z 2000/2024 13010KT 9999 SCT020 TEMPO 2000/2024 4000 SHRA BKN014 FEW018CB

Obserwacja i prognoza pogody dla ponad 4000 lotnisk (raport METAR i TAF).

Dostępne stacje oznaczono żółtymi i czerwonymi punktami na mapie.

Najedź kursorem aby zobaczyć nazwę stacji.

Kliknij aby zobaczyć obserwacje i prognozy pogody.

Aby zmienić mapę: kliknij na zielony przycisk z czarnym krzyżykiem, aby powiększyć; na zielony przycisk z myślnikiem, aby pomniejszyć; na zielone strzałki, aby przejść do map sąsiednich.


METAR-TAF: